Time;durP1;ratioP1;P1;durP2;ratioP2;P2;SDS_P1;SDS_P2;PMS_P1;PMS_P2;Temp;Humidity;BMP_temperature;BMP_pressure;BME280_temperature;BME280_humidity;BME280_pressure;Samples;Min_cycle;Max_cycle;Signal;HPM_P1;HPM_P2
2022/01/21 00:01:07;;;;;;;10.45;3.30;;;1.80;99.90;;;;;;5113860;28;20019;-69
2022/01/21 00:03:34;;;;;;;9.93;2.97;;;1.80;99.90;;;;;;5113956;28;20027;-69
2022/01/21 00:06:00;;;;;;;8.60;3.28;;;1.80;99.90;;;;;;5113831;28;20129;-69
2022/01/21 00:08:26;;;;;;;12.40;3.40;;;1.70;99.90;;;;;;5114029;28;20015;-69
2022/01/21 00:10:51;;;;;;;9.00;3.00;;;1.80;99.90;;;;;;5113668;28;20032;-69
2022/01/21 00:13:24;;;;;;;13.53;3.10;;;1.90;99.90;;;;;;5112608;28;20117;-69
2022/01/21 00:15:50;;;;;;;11.75;2.88;;;1.90;99.90;;;;;;5112095;28;20035;-69
2022/01/21 00:18:17;;;;;;;12.13;3.00;;;2.00;99.90;;;;;;5113564;28;20028;-69
2022/01/21 00:31:39;;;;;;;12.93;2.88;;;2.00;99.90;;;;;;5113641;28;20499;-70
2022/01/21 00:34:04;;;;;;;11.90;3.17;;;2.00;99.90;;;;;;5111963;28;20027;-70
2022/01/21 00:36:32;;;;;;;8.60;3.37;;;2.00;99.90;;;;;;5113352;28;20064;-70
2022/01/21 00:38:58;;;;;;;14.23;3.50;;;2.00;99.90;;;;;;5113721;28;20058;-69
2022/01/21 00:41:27;;;;;;;13.80;2.80;;;2.00;99.90;;;;;;5113411;28;20027;-69
2022/01/21 00:43:53;;;;;;;5.78;2.65;;;2.00;99.90;;;;;;5112127;28;20472;-68
2022/01/21 00:46:19;;;;;;;9.03;2.50;;;2.00;99.90;;;;;;5114035;28;20042;-69
2022/01/21 00:48:45;;;;;;;11.63;3.30;;;2.00;99.90;;;;;;5112169;28;20024;-69
2022/01/21 00:51:10;;;;;;;10.63;3.07;;;2.00;99.90;;;;;;5113553;28;20485;-68
2022/01/21 00:53:36;;;;;;;8.87;2.90;;;2.00;99.90;;;;;;5113774;28;20023;-69
2022/01/21 00:56:02;;;;;;;9.63;3.07;;;2.00;99.90;;;;;;5113620;28;20026;-69
2022/01/21 00:58:28;;;;;;;11.38;4.32;;;2.00;99.90;;;;;;5113488;28;20020;-69
2022/01/21 01:00:54;;;;;;;14.03;3.70;;;2.00;99.90;;;;;;5112061;28;20119;-69
2022/01/21 01:03:20;;;;;;;9.65;2.97;;;2.00;99.90;;;;;;5112181;28;20038;-69
2022/01/21 01:05:47;;;;;;;10.52;3.08;;;2.00;99.90;;;;;;5113055;28;20046;-69
2022/01/21 01:08:13;;;;;;;11.73;3.85;;;2.10;99.90;;;;;;5113250;28;20097;-68
2022/01/21 01:21:18;;;;;;;13.35;3.22;;;1.80;99.90;;;;;;5117813;28;20031;-69
2022/01/21 01:29:14;;;;;;;10.38;3.08;;;1.80;99.90;;;;;;5117450;28;20034;-69
2022/01/21 01:31:39;;;;;;;8.25;3.45;;;1.80;99.90;;;;;;5116955;28;20479;-69
2022/01/21 01:34:05;;;;;;;11.93;3.10;;;1.80;99.90;;;;;;5116664;28;20036;-70
2022/01/21 01:36:31;;;;;;;6.47;2.90;;;1.80;99.90;;;;;;5116558;28;20276;-70
2022/01/21 01:39:16;;;;;;;24.75;3.75;;;1.80;99.90;;;;;;5115177;28;20484;-69
2022/01/21 01:41:57;;;;;;;7.03;2.60;;;1.80;99.90;;;;;;5116664;28;20157;-69
2022/01/21 01:49:51;;;;;;;9.52;2.90;;;1.70;99.90;;;;;;5117816;28;20043;-69
2022/01/21 01:52:17;;;;;;;10.17;3.17;;;1.70;99.90;;;;;;5118755;28;20019;-69
2022/01/21 01:54:52;;;;;;;7.47;2.83;;;1.60;99.90;;;;;;5116582;28;20023;-69
2022/01/21 01:57:18;;;;;;;7.85;2.97;;;1.60;99.90;;;;;;5115034;28;20038;-69
2022/01/21 01:59:44;;;;;;;7.82;2.75;;;1.70;99.90;;;;;;5116185;28;20024;-69
2022/01/21 02:02:13;;;;;;;9.60;3.45;;;1.70;99.90;;;;;;5116208;28;20034;-69
2022/01/21 02:04:40;;;;;;;12.45;3.20;;;1.60;99.90;;;;;;5114600;28;20024;-69
2022/01/21 02:07:06;;;;;;;9.75;2.85;;;1.70;99.90;;;;;;5116046;27;20023;-70
2022/01/21 02:09:32;;;;;;;10.85;3.10;;;1.70;99.90;;;;;;5115211;28;20020;-69
2022/01/21 02:11:58;;;;;;;8.07;3.00;;;1.70;99.90;;;;;;5115326;28;20103;-69
2022/01/21 02:14:29;;;;;;;8.77;2.90;;;1.70;99.90;;;;;;5115947;28;20365;-70
2022/01/21 02:22:09;;;;;;;8.60;2.90;;;1.50;99.90;;;;;;5115265;28;20046;-70
2022/01/21 02:24:47;;;;;;;10.10;2.40;;;1.50;99.90;;;;;;5115638;28;20416;-70
2022/01/21 02:27:13;;;;;;;10.85;2.85;;;1.50;99.90;;;;;;5114497;28;20054;-69
2022/01/21 02:29:48;;;;;;;8.30;2.70;;;1.50;99.90;;;;;;5115739;28;20379;-70
2022/01/21 02:32:15;;;;;;;10.07;2.80;;;1.50;99.90;;;;;;5114365;28;20024;-68
2022/01/21 02:34:42;;;;;;;7.80;3.08;;;1.50;99.90;;;;;;5114191;28;20028;-69
2022/01/21 02:37:13;;;;;;;10.85;3.17;;;1.50;99.90;;;;;;5115704;27;20072;-69
2022/01/21 02:39:39;;;;;;;9.25;2.88;;;1.60;99.90;;;;;;5115615;28;20023;-69
2022/01/21 02:42:06;;;;;;;19.33;3.88;;;1.70;99.90;;;;;;5114372;28;20031;-69
2022/01/21 02:44:32;;;;;;;9.43;2.72;;;1.70;99.90;;;;;;5115130;28;20032;-69
2022/01/21 02:47:01;;;;;;;7.10;2.47;;;1.70;99.90;;;;;;5114299;28;20045;-69
2022/01/21 02:49:27;;;;;;;9.48;3.00;;;1.70;99.90;;;;;;5115536;28;20020;-69
2022/01/21 02:51:55;;;;;;;9.23;2.67;;;1.70;99.90;;;;;;5114013;28;20027;-69
2022/01/21 02:54:20;;;;;;;12.50;2.75;;;1.60;99.90;;;;;;5115222;28;20077;-68
2022/01/21 02:56:47;;;;;;;7.50;2.60;;;1.60;99.90;;;;;;5115421;28;20020;-70
2022/01/21 02:59:12;;;;;;;8.77;3.08;;;1.60;99.90;;;;;;5115278;28;20369;-69
2022/01/21 03:01:41;;;;;;;12.53;3.07;;;1.60;99.90;;;;;;5115223;28;20031;-69
2022/01/21 03:04:09;;;;;;;8.65;2.65;;;1.50;99.90;;;;;;5113698;28;20151;-69
2022/01/21 03:06:37;;;;;;;15.32;3.08;;;1.50;99.90;;;;;;5113725;28;20019;-70
2022/01/21 03:09:06;;;;;;;11.32;3.33;;;1.40;99.90;;;;;;5113718;28;20019;-70
2022/01/21 03:11:32;;;;;;;10.27;3.47;;;1.40;99.90;;;;;;5114850;28;20023;-68
2022/01/21 03:13:57;;;;;;;13.57;2.97;;;1.30;99.90;;;;;;5114780;28;20016;-69
2022/01/21 03:16:26;;;;;;;13.33;3.30;;;1.30;99.90;;;;;;5113515;28;20388;-69
2022/01/21 03:18:52;;;;;;;11.25;3.17;;;1.30;99.90;;;;;;5113415;28;20031;-69
2022/01/21 03:21:18;;;;;;;12.00;2.90;;;1.30;99.90;;;;;;5114840;28;20023;-70
2022/01/21 03:23:50;;;;;;;12.13;3.90;;;1.30;99.90;;;;;;5113449;28;20028;-68
2022/01/21 03:26:18;;;;;;;13.77;3.30;;;1.20;99.90;;;;;;5113559;28;20430;-69
2022/01/21 03:28:50;;;;;;;8.88;3.17;;;1.20;99.90;;;;;;5113356;28;20052;-69
2022/01/21 03:31:16;;;;;;;10.90;3.08;;;1.20;99.90;;;;;;5114777;28;20046;-70
2022/01/21 03:33:42;;;;;;;12.50;2.80;;;1.20;99.90;;;;;;5114996;28;20107;-69
2022/01/21 03:36:10;;;;;;;10.77;3.35;;;1.20;99.90;;;;;;5113257;28;20464;-69
2022/01/21 03:38:37;;;;;;;11.80;3.17;;;1.20;99.90;;;;;;5114598;28;20092;-69
2022/01/21 03:41:04;;;;;;;17.55;3.40;;;1.20;99.90;;;;;;5113349;28;20062;-69
2022/01/21 03:43:30;;;;;;;11.32;3.15;;;1.20;99.90;;;;;;5114687;28;20024;-70
2022/01/21 03:45:56;;;;;;;11.93;3.45;;;1.10;99.90;;;;;;5113077;28;20486;-70
2022/01/21 03:48:22;;;;;;;9.30;3.50;;;1.10;99.90;;;;;;5114561;28;20027;-70
2022/01/21 03:50:48;;;;;;;8.15;3.40;;;1.10;99.90;;;;;;5114644;28;20020;-69
2022/01/21 03:53:14;;;;;;;10.43;3.47;;;1.00;99.90;;;;;;5112939;28;20377;-69
2022/01/21 03:55:39;;;;;;;10.83;3.33;;;1.00;99.90;;;;;;5114206;28;20034;-69
2022/01/21 03:58:07;;;;;;;12.50;4.28;;;1.00;99.90;;;;;;5114932;28;20032;-69
2022/01/21 04:00:48;;;;;;;8.70;3.25;;;1.00;99.90;;;;;;5114336;28;20118;-69
2022/01/21 04:03:14;;;;;;;9.90;3.28;;;0.90;99.90;;;;;;5114178;28;20024;-69
2022/01/21 04:05:40;;;;;;;9.75;3.03;;;0.90;99.90;;;;;;5113166;28;20381;-69
2022/01/21 04:08:07;;;;;;;11.02;3.65;;;0.90;99.90;;;;;;5114104;28;20369;-69
2022/01/21 04:10:41;;;;;;;14.70;3.65;;;0.90;99.90;;;;;;5113974;28;20043;-69
2022/01/21 04:13:15;;;;;;;12.18;3.53;;;0.90;99.90;;;;;;5113316;28;20023;-69
2022/01/21 04:15:43;;;;;;;7.65;3.30;;;0.90;99.90;;;;;;5113736;28;20050;-68
2022/01/21 04:18:09;;;;;;;12.02;3.30;;;0.90;99.90;;;;;;5112481;28;20024;-68
2022/01/21 04:20:35;;;;;;;12.15;3.42;;;1.00;99.90;;;;;;5114020;28;20384;-68
2022/01/21 04:23:01;;;;;;;7.20;3.08;;;1.00;99.90;;;;;;5112595;28;20031;-69
2022/01/21 04:25:27;;;;;;;10.38;3.28;;;1.00;99.90;;;;;;5112155;28;20093;-68
2022/01/21 04:27:53;;;;;;;9.77;3.60;;;1.00;99.90;;;;;;5113752;28;20028;-68
2022/01/21 04:30:18;;;;;;;9.43;3.20;;;1.00;99.90;;;;;;5113772;28;20726;-69
2022/01/21 04:32:44;;;;;;;14.20;3.60;;;1.10;99.90;;;;;;5113305;28;20107;-69
2022/01/21 04:35:10;;;;;;;18.70;3.53;;;1.10;99.90;;;;;;5115080;28;20023;-69
2022/01/21 04:37:38;;;;;;;11.83;3.20;;;1.10;99.90;;;;;;5114225;28;20395;-69
2022/01/21 04:40:12;;;;;;;16.27;3.53;;;1.10;99.90;;;;;;5115602;28;20124;-69
2022/01/21 04:48:07;;;;;;;10.63;4.43;;;1.00;99.90;;;;;;5119286;28;20064;-69
2022/01/21 04:50:41;;;;;;;11.05;4.13;;;1.00;99.90;;;;;;5118797;28;20072;-70
2022/01/21 04:53:07;;;;;;;8.70;3.55;;;1.00;99.90;;;;;;5118146;28;20052;-69
2022/01/21 04:55:34;;;;;;;13.63;5.40;;;0.90;99.90;;;;;;5118636;28;20034;-69
2022/01/21 04:57:59;;;;;;;15.82;3.70;;;0.90;99.90;;;;;;5117744;28;20106;-71
2022/01/21 05:00:25;;;;;;;17.13;3.50;;;0.90;99.90;;;;;;5117996;28;20030;-69
2022/01/21 05:02:51;;;;;;;12.38;3.65;;;1.10;99.90;;;;;;5116179;28;20034;-71
2022/01/21 05:05:18;;;;;;;10.55;3.15;;;1.10;99.90;;;;;;5119138;28;20031;-69
2022/01/21 05:07:44;;;;;;;11.77;3.42;;;1.20;99.90;;;;;;5117644;28;20472;-70
2022/01/21 05:10:09;;;;;;;13.63;3.60;;;1.20;99.90;;;;;;5118991;27;20112;-71
2022/01/21 05:12:37;;;;;;;8.30;3.20;;;1.20;99.90;;;;;;5117685;28;20023;-70
2022/01/21 05:15:20;;;;;;;11.07;3.47;;;1.30;99.90;;;;;;5116375;28;20323;-70
2022/01/21 05:17:49;;;;;;;13.23;3.60;;;1.30;99.90;;;;;;5117113;28;20062;-68
2022/01/21 05:20:17;;;;;;;12.73;3.92;;;1.20;99.90;;;;;;5118628;28;20015;-68
2022/01/21 05:22:43;;;;;;;9.90;3.85;;;1.30;99.90;;;;;;5117415;28;20027;-69
2022/01/21 05:25:16;;;;;;;13.20;3.67;;;1.20;99.90;;;;;;5117181;28;20341;-68
2022/01/21 05:27:44;;;;;;;9.80;3.50;;;1.10;99.90;;;;;;5117167;28;20436;-68
2022/01/21 05:30:10;;;;;;;8.60;2.70;;;1.00;99.90;;;;;;5116731;28;20024;-68
2022/01/21 05:32:35;;;;;;;7.38;3.00;;;1.00;99.90;;;;;;5117098;28;20024;-69
2022/01/21 05:35:01;;;;;;;13.07;3.40;;;0.90;99.90;;;;;;5116891;28;20499;-68
2022/01/21 05:37:27;;;;;;;7.37;3.00;;;0.90;99.90;;;;;;5117186;28;20027;-69
2022/01/21 05:39:53;;;;;;;6.20;3.33;;;0.90;99.90;;;;;;5115442;28;20020;-69
2022/01/21 05:42:20;;;;;;;11.73;3.13;;;0.90;99.90;;;;;;5117030;28;20028;-69
2022/01/21 05:47:11;;;;;;;11.70;3.30;;;0.90;99.90;;;;;;5116995;28;20464;-69
2022/01/21 05:49:38;;;;;;;12.63;4.27;;;0.90;99.90;;;;;;5115089;28;20022;-69
2022/01/21 05:52:15;;;;;;;10.65;3.78;;;0.80;99.90;;;;;;5116538;28;20333;-69
2022/01/21 05:54:41;;;;;;;11.50;3.40;;;0.80;99.90;;;;;;5115047;28;20400;-69
2022/01/21 05:57:11;;;;;;;13.43;4.38;;;0.80;99.90;;;;;;5115188;28;20119;-69
2022/01/21 05:59:37;;;;;;;9.32;3.70;;;0.80;99.90;;;;;;5116251;28;20020;-69
2022/01/21 06:02:07;;;;;;;14.93;4.28;;;0.70;99.90;;;;;;5116351;27;20035;-69
2022/01/21 06:04:34;;;;;;;14.85;4.15;;;0.70;99.90;;;;;;5116644;28;20483;-70
2022/01/21 06:07:00;;;;;;;13.23;4.57;;;0.70;99.90;;;;;;5117780;28;20019;-69
2022/01/21 06:09:30;;;;;;;13.05;4.18;;;0.70;99.90;;;;;;5117158;28;20024;-68
2022/01/21 06:11:56;;;;;;;9.38;3.53;;;0.60;99.90;;;;;;5116297;28;20385;-68
2022/01/21 06:14:24;;;;;;;13.17;4.07;;;0.70;99.90;;;;;;5115787;28;20024;-69
2022/01/21 06:16:50;;;;;;;15.38;3.88;;;0.70;99.90;;;;;;5117631;28;20052;-69
2022/01/21 06:19:15;;;;;;;12.33;3.97;;;0.70;99.90;;;;;;5115837;28;20019;-69
2022/01/21 06:21:41;;;;;;;13.17;4.03;;;0.70;99.90;;;;;;5115365;28;20114;-69
2022/01/21 06:24:07;;;;;;;11.50;3.85;;;0.70;99.90;;;;;;5115079;28;20016;-69
2022/01/21 06:26:33;;;;;;;17.83;4.10;;;0.80;99.90;;;;;;5114947;28;20035;-68
2022/01/21 06:28:58;;;;;;;14.50;4.32;;;0.80;99.90;;;;;;5115808;28;20528;-69
2022/01/21 06:31:24;;;;;;;10.33;3.43;;;0.80;99.90;;;;;;5114187;28;20031;-68
2022/01/21 06:33:50;;;;;;;16.57;4.03;;;0.90;99.90;;;;;;5115368;28;20027;-69
2022/01/21 06:36:15;;;;;;;10.00;3.63;;;1.10;99.90;;;;;;5115761;28;20080;-69
2022/01/21 06:38:41;;;;;;;11.10;4.10;;;1.10;99.90;;;;;;5115744;28;20087;-69
2022/01/21 06:41:06;;;;;;;19.37;4.70;;;1.10;99.90;;;;;;5115523;28;20038;-69
2022/01/21 06:43:32;;;;;;;14.13;4.10;;;1.10;99.90;;;;;;5113889;28;20043;-69
2022/01/21 06:46:01;;;;;;;8.90;3.57;;;1.10;99.90;;;;;;5115802;28;20035;-69
2022/01/21 06:48:26;;;;;;;12.93;3.50;;;1.10;99.90;;;;;;5115542;28;20039;-69
2022/01/21 06:50:52;;;;;;;15.77;4.50;;;1.10;99.90;;;;;;5115574;28;20023;-69
2022/01/21 06:53:17;;;;;;;12.20;3.93;;;1.10;99.90;;;;;;5115898;28;20096;-68
2022/01/21 06:55:43;;;;;;;8.17;3.73;;;1.20;99.90;;;;;;5115418;28;20459;-68
2022/01/21 06:58:09;;;;;;;14.43;5.37;;;1.20;99.90;;;;;;5117283;28;20028;-69
2022/01/21 07:00:35;;;;;;;17.80;3.90;;;1.20;99.90;;;;;;5117330;28;20076;-69
2022/01/21 07:03:00;;;;;;;15.93;5.43;;;1.20;99.90;;;;;;5115517;28;20065;-69
2022/01/21 07:05:29;;;;;;;13.67;4.70;;;1.20;99.90;;;;;;5115827;28;20039;-69
2022/01/21 07:07:56;;;;;;;11.45;4.22;;;1.20;99.90;;;;;;5114637;28;20471;-69
2022/01/21 07:10:21;;;;;;;11.85;3.67;;;1.20;99.90;;;;;;5115600;28;20468;-69
2022/01/21 07:12:47;;;;;;;9.43;3.93;;;1.20;99.90;;;;;;5115163;28;20547;-70
2022/01/21 07:15:15;;;;;;;11.23;4.60;;;1.20;99.90;;;;;;5114831;28;20024;-69
2022/01/21 07:17:42;;;;;;;8.07;4.30;;;1.20;99.90;;;;;;5114830;28;20035;-68
2022/01/21 07:20:09;;;;;;;13.07;4.28;;;1.30;99.90;;;;;;5115501;28;20024;-68
2022/01/21 07:22:35;;;;;;;15.27;4.45;;;1.20;99.90;;;;;;5114441;28;20022;-68
2022/01/21 07:25:01;;;;;;;12.35;3.85;;;1.10;99.90;;;;;;5112901;28;20031;-68
2022/01/21 07:27:26;;;;;;;9.65;3.83;;;1.20;99.90;;;;;;5114617;28;20034;-69
2022/01/21 07:29:54;;;;;;;14.87;5.07;;;1.20;99.90;;;;;;5114856;28;20062;-70
2022/01/21 07:32:20;;;;;;;17.77;6.68;;;1.20;99.90;;;;;;5113361;28;20034;-68
2022/01/21 07:34:46;;;;;;;13.33;4.30;;;1.20;99.90;;;;;;5114390;28;20392;-68
2022/01/21 07:37:11;;;;;;;17.50;4.43;;;1.30;99.90;;;;;;5114801;28;20518;-68
2022/01/21 07:39:37;;;;;;;16.53;4.83;;;1.30;99.90;;;;;;5115480;28;20015;-69
2022/01/21 07:42:03;;;;;;;13.37;4.43;;;1.40;99.90;;;;;;5114900;28;20023;-68
2022/01/21 07:44:29;;;;;;;16.63;4.25;;;1.40;99.90;;;;;;5112872;28;20033;-69
2022/01/21 07:46:54;;;;;;;13.30;4.73;;;1.40;99.90;;;;;;5114568;28;20080;-68
2022/01/21 07:49:20;;;;;;;14.43;4.43;;;1.50;99.90;;;;;;5113133;28;20265;-68
2022/01/21 07:51:46;;;;;;;15.83;4.57;;;1.50;99.90;;;;;;5114073;28;20496;-69
2022/01/21 07:54:12;;;;;;;13.50;4.57;;;1.50;99.90;;;;;;5114052;28;20154;-69
2022/01/21 07:56:38;;;;;;;13.57;4.03;;;1.50;99.90;;;;;;5114183;28;20557;-69
2022/01/21 07:59:08;;;;;;;18.47;6.10;;;1.50;99.90;;;;;;5112408;28;20153;-69
2022/01/21 08:01:34;;;;;;;17.33;5.20;;;1.60;99.90;;;;;;5114088;28;20027;-69
2022/01/21 08:04:00;;;;;;;17.02;5.38;;;1.60;99.90;;;;;;5112502;28;20389;-68
2022/01/21 08:06:26;;;;;;;16.05;5.05;;;1.60;99.90;;;;;;5114067;28;20035;-68
2022/01/21 08:08:54;;;;;;;16.83;5.55;;;1.60;99.90;;;;;;5114062;28;20022;-68
2022/01/21 08:11:20;;;;;;;11.48;4.47;;;1.60;99.90;;;;;;5114090;28;20461;-69
2022/01/21 08:13:46;;;;;;;;;;;1.60;99.90;;;;;;5113192;28;20019;-69
2022/01/21 08:16:12;;;;;;;13.93;4.10;;;1.60;99.90;;;;;;5114668;28;19926;-68
2022/01/21 08:18:37;;;;;;;17.53;4.63;;;1.60;99.90;;;;;;5112619;28;20030;-71
2022/01/21 08:21:03;;;;;;;17.07;4.80;;;1.60;99.90;;;;;;5112978;28;20020;-71
2022/01/21 08:23:29;;;;;;;15.07;4.70;;;1.70;99.90;;;;;;5114427;28;20356;-70
2022/01/21 08:25:55;;;;;;;20.15;4.72;;;1.80;99.90;;;;;;5112328;28;20026;-68
2022/01/21 08:28:21;;;;;;;17.77;4.70;;;1.80;99.90;;;;;;5113678;28;20041;-69
2022/01/21 08:30:48;;;;;;;17.50;4.95;;;1.80;99.90;;;;;;5113991;28;20019;-69
2022/01/21 08:33:13;;;;;;;14.35;4.53;;;1.80;99.90;;;;;;5113903;28;20028;-70
2022/01/21 08:35:39;;;;;;;14.25;5.93;;;1.70;99.90;;;;;;5113855;28;20026;-70
2022/01/21 08:38:05;;;;;;;19.67;5.22;;;1.70;99.90;;;;;;5112401;28;20027;-69
2022/01/21 08:40:32;;;;;;;12.23;4.28;;;1.70;99.90;;;;;;5113811;28;20108;-70
2022/01/21 08:42:59;;;;;;;15.02;5.53;;;1.70;99.90;;;;;;5114542;28;20107;-70
2022/01/21 08:45:25;;;;;;;16.88;5.43;;;1.70;99.90;;;;;;5114585;28;20085;-68
2022/01/21 08:47:51;;;;;;;13.40;4.82;;;1.60;99.90;;;;;;5114621;28;20050;-69
2022/01/21 08:50:19;;;;;;;25.80;5.20;;;1.60;99.90;;;;;;5114316;28;20357;-69
2022/01/21 08:52:47;;;;;;;11.43;4.70;;;1.70;99.90;;;;;;5114094;28;20019;-69
2022/01/21 08:55:18;;;;;;;13.77;4.72;;;1.90;99.90;;;;;;5113675;28;20030;-68
2022/01/21 08:57:45;;;;;;;19.38;7.82;;;2.00;99.90;;;;;;5112243;28;20023;-68
2022/01/21 09:00:17;;;;;;;12.32;4.43;;;2.10;99.90;;;;;;5112163;28;20480;-68
2022/01/21 09:02:43;;;;;;;14.93;4.97;;;2.20;99.90;;;;;;5112622;28;20095;-69
2022/01/21 09:05:09;;;;;;;13.35;4.18;;;2.40;99.90;;;;;;5113482;28;20146;-68
2022/01/21 09:07:35;;;;;;;13.18;4.50;;;2.40;99.90;;;;;;5113531;28;20215;-69
2022/01/21 09:10:02;;;;;;;11.77;4.40;;;2.50;99.90;;;;;;5113509;28;20549;-69
2022/01/21 09:12:28;;;;;;;14.48;5.38;;;2.60;99.90;;;;;;5113193;28;20042;-68
2022/01/21 09:14:54;;;;;;;12.05;4.45;;;2.70;99.90;;;;;;5111973;28;20488;-68
2022/01/21 09:17:19;;;;;;;14.67;4.53;;;2.80;99.90;;;;;;5113112;28;20038;-68
2022/01/21 09:19:45;;;;;;;11.43;4.67;;;2.80;99.90;;;;;;5111721;28;20122;-68
2022/01/21 09:22:10;;;;;;;14.77;4.57;;;2.90;99.90;;;;;;5113346;28;20091;-68
2022/01/21 09:24:36;;;;;;;15.17;4.67;;;2.90;99.90;;;;;;5113335;28;20040;-68
2022/01/21 09:27:04;;;;;;;11.50;5.38;;;2.90;99.90;;;;;;5112997;28;20022;-68
2022/01/21 09:29:31;;;;;;;10.65;4.45;;;2.90;99.90;;;;;;5112009;28;20048;-68
2022/01/21 09:31:57;;;;;;;11.20;5.50;;;2.80;99.90;;;;;;5116194;28;20376;-68
2022/01/21 09:34:24;;;;;;;15.85;5.47;;;2.80;99.90;;;;;;5116871;28;20111;-68
2022/01/21 09:36:51;;;;;;;15.60;5.32;;;2.80;99.90;;;;;;5117042;28;20026;-69
2022/01/21 09:39:16;;;;;;;20.10;6.20;;;2.90;99.90;;;;;;5117461;28;20025;-69
2022/01/21 09:41:43;;;;;;;19.13;5.10;;;2.90;99.90;;;;;;5115717;28;20103;-69
2022/01/21 09:44:14;;;;;;;14.65;4.75;;;2.90;99.90;;;;;;5116693;28;20038;-69
2022/01/21 09:46:44;;;;;;;13.48;4.95;;;2.80;99.90;;;;;;5115153;28;20044;-69
2022/01/21 09:51:59;;;;;;;13.98;4.82;;;2.90;99.90;;;;;;5116878;28;20031;-68
2022/01/21 09:54:32;;;;;;;14.27;5.07;;;3.00;99.90;;;;;;5115246;28;20053;-68
2022/01/21 09:56:59;;;;;;;14.38;4.70;;;3.10;99.90;;;;;;5114897;28;20120;-69
2022/01/21 09:59:28;;;;;;;13.27;4.60;;;3.20;99.90;;;;;;5116524;28;20594;-69
2022/01/21 10:01:58;;;;;;;15.95;5.78;;;3.30;99.90;;;;;;5116343;28;20077;-69
2022/01/21 10:04:34;;;;;;;12.63;4.78;;;3.30;99.90;;;;;;5115226;28;20114;-69
2022/01/21 10:07:01;;;;;;;12.95;5.60;;;3.30;99.90;;;;;;5115311;28;20023;-69
2022/01/21 10:09:27;;;;;;;16.02;4.60;;;3.30;99.90;;;;;;5116276;28;20023;-68
2022/01/21 10:11:55;;;;;;;16.80;5.20;;;3.40;99.90;;;;;;5114751;28;20348;-68
2022/01/21 10:14:23;;;;;;;13.55;5.82;;;3.50;99.90;;;;;;5114755;28;20031;-68
2022/01/21 10:16:49;;;;;;;18.60;5.45;;;3.50;99.90;;;;;;5114760;28;20088;-69
2022/01/21 10:19:27;;;;;;;11.48;4.55;;;3.50;99.90;;;;;;5115944;27;20031;-68
2022/01/21 10:22:13;;;;;;;12.98;5.72;;;3.50;99.90;;;;;;5115745;28;20392;-68
2022/01/21 10:25:00;;;;;;;13.50;4.28;;;3.50;99.90;;;;;;5115775;28;20031;-68
2022/01/21 10:27:27;;;;;;;11.55;4.43;;;3.70;99.90;;;;;;5115909;28;20039;-68
2022/01/21 10:29:53;;;;;;;14.90;5.03;;;3.70;99.90;;;;;;5114560;28;20031;-68
2022/01/21 10:32:39;;;;;;;32.83;6.38;;;3.70;99.90;;;;;;5116364;28;20074;-70
2022/01/21 10:35:26;;;;;;;16.25;5.03;;;3.70;99.90;;;;;;5116186;28;20412;-69
2022/01/21 10:37:56;;;;;;;18.38;4.88;;;3.70;99.90;;;;;;5114428;28;20373;-67
2022/01/21 10:40:22;;;;;;;11.55;4.28;;;3.80;99.90;;;;;;5115329;28;20110;-68
2022/01/21 10:42:49;;;;;;;16.45;4.38;;;4.00;99.90;;;;;;5115170;28;20051;-69
2022/01/21 10:45:15;;;;;;;;;;;4.10;99.90;;;;;;5114301;28;20062;-68
2022/01/21 10:47:48;;;;;;;13.50;3.75;;;4.00;99.90;;;;;;5115744;28;19904;-67
2022/01/21 10:50:22;;;;;;;10.35;3.22;;;4.00;99.90;;;;;;5115701;28;20043;-69
2022/01/21 10:52:52;;;;;;;12.73;4.20;;;4.10;99.90;;;;;;5114201;28;20019;-69
2022/01/21 10:55:36;;;;;;;10.15;4.18;;;4.20;99.90;;;;;;5113834;28;20035;-68
2022/01/21 10:58:08;;;;;;;17.25;4.13;;;4.20;99.90;;;;;;5114832;28;20023;-68
2022/01/21 11:00:37;;;;;;;12.90;3.80;;;4.20;99.90;;;;;;5115476;28;20034;-68
2022/01/21 11:03:14;;;;;;;17.40;4.30;;;4.20;99.90;;;;;;5114227;28;20028;-68
2022/01/21 11:05:45;;;;;;;11.40;4.55;;;4.30;99.90;;;;;;5115195;28;20119;-68
2022/01/21 11:08:12;;;;;;;14.68;4.30;;;4.40;99.90;;;;;;5115005;28;20028;-68
2022/01/21 11:10:42;;;;;;;15.93;5.45;;;4.50;99.90;;;;;;5115361;28;20015;-68
2022/01/21 11:13:20;;;;;;;15.05;5.13;;;4.50;99.90;;;;;;5114994;28;20337;-68
2022/01/21 11:15:55;;;;;;;17.20;4.78;;;4.40;99.90;;;;;;5113527;28;20464;-68
2022/01/21 11:18:22;;;;;;;15.88;4.15;;;4.50;99.90;;;;;;5113851;28;20052;-68
2022/01/21 11:21:10;;;;;;;15.88;5.75;;;4.40;99.90;;;;;;5114914;28;20034;-69
2022/01/21 11:23:37;;;;;;;13.30;3.63;;;4.40;99.90;;;;;;5113689;28;20476;-68
2022/01/21 11:26:09;;;;;;;16.17;3.92;;;4.50;99.90;;;;;;5113336;28;20027;-69
2022/01/21 11:28:41;;;;;;;13.55;4.63;;;4.70;99.90;;;;;;5115119;28;20103;-69
2022/01/21 11:31:08;;;;;;;13.68;3.85;;;4.80;99.90;;;;;;5113676;28;20020;-69
2022/01/21 11:33:35;;;;;;;16.15;4.03;;;4.90;99.90;;;;;;5115153;28;20140;-70
2022/01/21 11:36:02;;;;;;;;;;;5.00;99.90;;;;;;5114972;28;20028;-69
2022/01/21 11:38:28;;;;;;;15.95;4.28;;;5.10;99.90;;;;;;5114657;28;19911;-67
2022/01/21 11:40:56;;;;;;;9.45;3.78;;;5.10;99.90;;;;;;5114523;28;20420;-69
2022/01/21 11:43:22;;;;;;;14.30;4.22;;;5.10;99.90;;;;;;5113219;28;20112;-68
2022/01/21 11:46:16;;;;;;;10.48;3.35;;;5.20;99.90;;;;;;5114673;28;20024;-69
2022/01/21 11:48:51;;;;;;;11.90;3.38;;;5.20;99.90;;;;;;5114687;28;20435;-69
2022/01/21 11:51:21;;;;;;;16.63;3.80;;;5.30;99.90;;;;;;5113079;28;20030;-69
2022/01/21 11:53:59;;;;;;;16.40;4.10;;;5.30;99.90;;;;;;5113019;28;20087;-68
2022/01/21 11:56:43;;;;;;;13.30;4.45;;;5.40;99.90;;;;;;5114046;28;20055;-68
2022/01/21 12:02:18;;;;;;;10.70;3.08;;;5.70;99.90;;;;;;5113509;28;20406;-67
2022/01/21 12:04:49;;;;;;;15.52;5.32;;;5.80;99.90;;;;;;5112835;28;20122;-68
2022/01/21 12:07:33;;;;;;;11.57;3.67;;;5.70;99.90;;;;;;5114497;28;20421;-69
2022/01/21 12:10:04;;;;;;;14.70;3.85;;;5.70;99.90;;;;;;5114387;28;20508;-69
2022/01/21 12:12:45;;;;;;;12.57;4.18;;;5.60;99.90;;;;;;5114238;28;20103;-68
2022/01/21 12:19:04;;;;;;;16.52;4.13;;;5.50;99.90;;;;;;5114382;28;20028;-69
2022/01/21 12:21:33;;;;;;;14.30;4.20;;;5.50;99.90;;;;;;5114055;28;20054;-68
2022/01/21 12:23:59;;;;;;;11.50;3.83;;;5.50;99.90;;;;;;5114513;28;20063;-69
2022/01/21 12:26:29;;;;;;;11.57;3.92;;;5.50;99.90;;;;;;5113678;28;20023;-69
2022/01/21 12:28:58;;;;;;;14.60;3.60;;;5.50;99.90;;;;;;5114014;28;20020;-69
2022/01/21 12:32:01;;;;;;;11.48;3.13;;;5.50;99.90;;;;;;5112305;28;20081;-69
2022/01/21 12:34:28;;;;;;;8.48;2.58;;;5.60;99.90;;;;;;5112231;28;20020;-68
2022/01/21 12:36:56;;;;;;;8.05;2.60;;;5.60;99.90;;;;;;5113505;28;20020;-69
2022/01/21 12:39:41;;;;;;;8.23;2.40;;;5.70;99.90;;;;;;5113662;28;20031;-69
2022/01/21 12:42:24;;;;;;;9.48;2.58;;;5.50;99.90;;;;;;5113731;28;20024;-69
2022/01/21 12:44:52;;;;;;;14.10;3.00;;;5.50;99.90;;;;;;5113352;28;20032;-68
2022/01/21 12:47:40;;;;;;;13.10;3.33;;;5.50;99.90;;;;;;5112882;28;20031;-68
2022/01/21 12:55:56;;;;;;;10.63;2.58;;;5.60;99.90;;;;;;5116162;28;20449;-70
2022/01/21 12:58:32;;;;;;;12.45;2.85;;;5.50;99.90;;;;;;5114177;28;20031;-71
2022/01/21 13:01:03;;;;;;;12.02;2.75;;;5.50;99.90;;;;;;5114129;28;20095;-70
2022/01/21 13:03:55;;;;;;;11.57;3.15;;;5.50;99.90;;;;;;5113633;28;20059;-67
2022/01/21 13:06:36;;;;;;;8.30;2.90;;;5.40;99.90;;;;;;5115690;28;20480;-68
2022/01/21 13:09:08;;;;;;;14.18;4.25;;;5.50;99.90;;;;;;5117958;28;20188;-68
2022/01/21 13:11:39;;;;;;;12.77;3.58;;;5.40;99.90;;;;;;5117061;28;20023;-68
2022/01/21 13:14:34;;;;;;;25.15;5.78;;;5.20;99.90;;;;;;5116683;28;20019;-69
2022/01/21 13:17:11;;;;;;;18.45;3.70;;;5.00;99.90;;;;;;5116184;28;20035;-69
2022/01/21 13:19:56;;;;;;;14.68;3.70;;;5.10;99.90;;;;;;5117538;28;20020;-70
2022/01/21 13:22:28;;;;;;;10.10;4.13;;;5.10;99.90;;;;;;5116023;28;20031;-68
2022/01/21 13:25:05;;;;;;;14.98;3.15;;;5.00;99.90;;;;;;5117269;28;20039;-68
2022/01/21 13:27:33;;;;;;;13.35;3.60;;;5.00;99.90;;;;;;5117223;28;20023;-67
2022/01/21 13:30:11;;;;;;;10.43;2.58;;;5.00;99.90;;;;;;5116958;28;20015;-67
2022/01/21 13:32:37;;;;;;;12.15;2.70;;;5.00;99.90;;;;;;5115943;28;20103;-68
2022/01/21 13:35:11;;;;;;;9.97;3.03;;;5.10;99.90;;;;;;5117176;28;20191;-69
2022/01/21 13:37:39;;;;;;;14.35;3.00;;;5.20;99.90;;;;;;5117180;28;20023;-69
2022/01/21 13:40:08;;;;;;;7.45;2.60;;;5.30;99.90;;;;;;5115480;28;20038;-70
2022/01/21 13:42:35;;;;;;;13.35;3.38;;;5.30;99.90;;;;;;5115603;28;20026;-69
2022/01/21 13:45:08;;;;;;;15.95;3.33;;;5.30;99.90;;;;;;5116667;28;20085;-68
2022/01/21 13:47:40;;;;;;;13.30;3.05;;;5.30;99.90;;;;;;5117427;28;20024;-69
2022/01/21 13:50:08;;;;;;;14.07;3.42;;;5.30;99.90;;;;;;5116964;28;20483;-69
2022/01/21 13:52:51;;;;;;;18.67;3.90;;;5.20;99.90;;;;;;5115249;28;20034;-71
2022/01/21 13:55:42;;;;;;;14.55;2.92;;;5.20;99.90;;;;;;5115104;28;20023;-71
2022/01/21 13:58:12;;;;;;;12.45;3.38;;;5.10;99.90;;;;;;5114962;28;20463;-70
2022/01/21 14:01:05;;;;;;;12.60;3.75;;;5.00;99.90;;;;;;5115058;28;20054;-71